sensor_id;sensor_type;location;lat;lon;timestamp;temperature;humidity
17994;DHT22;9122;48.406;9.984;2024-03-06T00:01:51;7.80;99.90
17994;DHT22;9122;48.406;9.984;2024-03-06T00:04:36;7.30;99.90
17994;DHT22;9122;48.406;9.984;2024-03-06T00:07:21;7.30;99.90
17994;DHT22;9122;48.406;9.984;2024-03-06T00:10:05;7.80;99.90
17994;DHT22;9122;48.406;9.984;2024-03-06T00:12:50;7.80;99.90
17994;DHT22;9122;48.406;9.984;2024-03-06T00:15:34;7.80;99.90
17994;DHT22;9122;48.406;9.984;2024-03-06T00:18:18;7.30;99.90
17994;DHT22;9122;48.406;9.984;2024-03-06T00:21:02;8.00;99.90
17994;DHT22;9122;48.406;9.984;2024-03-06T00:23:46;7.80;99.90
17994;DHT22;9122;48.406;9.984;2024-03-06T00:26:31;7.70;99.90
17994;DHT22;9122;48.406;9.984;2024-03-06T00:29:16;9.40;99.90
17994;DHT22;9122;48.406;9.984;2024-03-06T00:32:00;7.40;99.90
17994;DHT22;9122;48.406;9.984;2024-03-06T00:40:14;7.70;99.90
17994;DHT22;9122;48.406;9.984;2024-03-06T00:42:58;7.70;99.90
17994;DHT22;9122;48.406;9.984;2024-03-06T00:45:43;8.40;99.90
17994;DHT22;9122;48.406;9.984;2024-03-06T00:48:27;7.70;99.90
17994;DHT22;9122;48.406;9.984;2024-03-06T00:51:11;7.70;99.90
17994;DHT22;9122;48.406;9.984;2024-03-06T00:53:56;7.70;99.90
17994;DHT22;9122;48.406;9.984;2024-03-06T00:56:40;7.70;99.90
17994;DHT22;9122;48.406;9.984;2024-03-06T00:59:24;7.70;99.90
17994;DHT22;9122;48.406;9.984;2024-03-06T01:04:54;7.70;99.90
17994;DHT22;9122;48.406;9.984;2024-03-06T01:07:40;7.70;99.90
17994;DHT22;9122;48.406;9.984;2024-03-06T01:10:24;7.20;99.90
17994;DHT22;9122;48.406;9.984;2024-03-06T01:13:09;8.00;99.90
17994;DHT22;9122;48.406;9.984;2024-03-06T01:15:54;7.90;99.90
17994;DHT22;9122;48.406;9.984;2024-03-06T01:18:39;7.20;99.90
17994;DHT22;9122;48.406;9.984;2024-03-06T01:21:23;7.70;99.90
17994;DHT22;9122;48.406;9.984;2024-03-06T01:24:08;7.60;99.90
17994;DHT22;9122;48.406;9.984;2024-03-06T01:26:52;7.70;99.90
17994;DHT22;9122;48.406;9.984;2024-03-06T01:29:36;7.70;99.90
17994;DHT22;9122;48.406;9.984;2024-03-06T01:32:21;7.60;99.90
17994;DHT22;9122;48.406;9.984;2024-03-06T01:35:06;7.50;99.90
17994;DHT22;9122;48.406;9.984;2024-03-06T01:37:51;7.60;99.90
17994;DHT22;9122;48.406;9.984;2024-03-06T01:40:36;7.60;99.90
17994;DHT22;9122;48.406;9.984;2024-03-06T01:43:25;7.60;99.90
17994;DHT22;9122;48.406;9.984;2024-03-06T01:46:09;7.60;99.90
17994;DHT22;9122;48.406;9.984;2024-03-06T01:48:53;7.70;99.90
17994;DHT22;9122;48.406;9.984;2024-03-06T01:51:38;7.60;99.90
17994;DHT22;9122;48.406;9.984;2024-03-06T01:54:23;7.60;99.90
17994;DHT22;9122;48.406;9.984;2024-03-06T01:57:08;7.60;99.90
17994;DHT22;9122;48.406;9.984;2024-03-06T01:59:55;7.10;99.90
17994;DHT22;9122;48.406;9.984;2024-03-06T02:02:41;7.60;99.90
17994;DHT22;9122;48.406;9.984;2024-03-06T02:05:28;7.60;99.90
17994;DHT22;9122;48.406;9.984;2024-03-06T02:08:15;7.00;99.90
17994;DHT22;9122;48.406;9.984;2024-03-06T02:10:59;7.50;99.90
17994;DHT22;9122;48.406;9.984;2024-03-06T02:13:46;7.90;99.90
17994;DHT22;9122;48.406;9.984;2024-03-06T02:16:31;7.70;99.90
17994;DHT22;9122;48.406;9.984;2024-03-06T02:19:15;7.60;99.90
17994;DHT22;9122;48.406;9.984;2024-03-06T02:21:59;7.50;99.90
17994;DHT22;9122;48.406;9.984;2024-03-06T02:24:48;7.60;99.90
17994;DHT22;9122;48.406;9.984;2024-03-06T02:27:33;7.70;99.90
17994;DHT22;9122;48.406;9.984;2024-03-06T02:30:21;7.50;99.90
17994;DHT22;9122;48.406;9.984;2024-03-06T02:33:05;7.60;99.90
17994;DHT22;9122;48.406;9.984;2024-03-06T02:35:56;7.50;99.90
17994;DHT22;9122;48.406;9.984;2024-03-06T02:41:25;7.50;99.90
17994;DHT22;9122;48.406;9.984;2024-03-06T02:44:09;7.40;99.90
17994;DHT22;9122;48.406;9.984;2024-03-06T02:46:53;8.30;99.90
17994;DHT22;9122;48.406;9.984;2024-03-06T02:49:38;7.50;99.90
17994;DHT22;9122;48.406;9.984;2024-03-06T02:52:23;7.50;99.90
17994;DHT22;9122;48.406;9.984;2024-03-06T02:55:07;7.60;99.90
17994;DHT22;9122;48.406;9.984;2024-03-06T03:00:36;7.50;99.90
17994;DHT22;9122;48.406;9.984;2024-03-06T03:03:20;7.60;99.90
17994;DHT22;9122;48.406;9.984;2024-03-06T03:06:04;8.00;99.90
17994;DHT22;9122;48.406;9.984;2024-03-06T03:11:34;7.40;99.90
17994;DHT22;9122;48.406;9.984;2024-03-06T03:14:19;7.60;99.90
17994;DHT22;9122;48.406;9.984;2024-03-06T03:22:37;7.40;99.90
17994;DHT22;9122;48.406;9.984;2024-03-06T03:25:22;7.50;99.90
17994;DHT22;9122;48.406;9.984;2024-03-06T03:28:07;7.40;99.90
17994;DHT22;9122;48.406;9.984;2024-03-06T03:30:51;7.60;99.90
17994;DHT22;9122;48.406;9.984;2024-03-06T03:33:35;7.40;99.90
17994;DHT22;9122;48.406;9.984;2024-03-06T03:36:23;7.80;99.90
17994;DHT22;9122;48.406;9.984;2024-03-06T03:39:10;7.50;99.90
17994;DHT22;9122;48.406;9.984;2024-03-06T03:41:59;9.00;99.90
17994;DHT22;9122;48.406;9.984;2024-03-06T03:44:44;7.50;99.90
17994;DHT22;9122;48.406;9.984;2024-03-06T03:47:28;7.40;99.90
17994;DHT22;9122;48.406;9.984;2024-03-06T03:50:13;7.50;99.90
17994;DHT22;9122;48.406;9.984;2024-03-06T03:52:58;7.40;99.90
17994;DHT22;9122;48.406;9.984;2024-03-06T03:55:45;8.70;99.90
17994;DHT22;9122;48.406;9.984;2024-03-06T04:01:15;7.40;99.90
17994;DHT22;9122;48.406;9.984;2024-03-06T04:03:59;7.60;99.90
17994;DHT22;9122;48.406;9.984;2024-03-06T04:06:43;8.40;99.90
17994;DHT22;9122;48.406;9.984;2024-03-06T04:09:29;7.40;99.90
17994;DHT22;9122;48.406;9.984;2024-03-06T04:12:13;7.30;99.90
17994;DHT22;9122;48.406;9.984;2024-03-06T04:14:57;7.30;99.90
17994;DHT22;9122;48.406;9.984;2024-03-06T04:17:42;7.40;99.90
17994;DHT22;9122;48.406;9.984;2024-03-06T04:20:26;7.30;99.90
17994;DHT22;9122;48.406;9.984;2024-03-06T04:23:10;7.40;99.90
17994;DHT22;9122;48.406;9.984;2024-03-06T04:25:55;7.30;99.90
17994;DHT22;9122;48.406;9.984;2024-03-06T04:28:40;7.30;99.90
17994;DHT22;9122;48.406;9.984;2024-03-06T04:31:24;7.60;99.90
17994;DHT22;9122;48.406;9.984;2024-03-06T04:34:09;7.30;99.90
17994;DHT22;9122;48.406;9.984;2024-03-06T04:36:53;8.00;99.90
17994;DHT22;9122;48.406;9.984;2024-03-06T04:39:37;7.30;99.90
17994;DHT22;9122;48.406;9.984;2024-03-06T04:45:15;7.20;99.90
17994;DHT22;9122;48.406;9.984;2024-03-06T04:47:59;7.20;99.90
17994;DHT22;9122;48.406;9.984;2024-03-06T04:50:43;7.20;99.90
17994;DHT22;9122;48.406;9.984;2024-03-06T04:53:29;7.20;99.90
17994;DHT22;9122;48.406;9.984;2024-03-06T04:56:12;7.10;99.90
17994;DHT22;9122;48.406;9.984;2024-03-06T04:58:57;7.20;99.90
17994;DHT22;9122;48.406;9.984;2024-03-06T05:01:47;7.20;99.90
17994;DHT22;9122;48.406;9.984;2024-03-06T05:04:31;7.20;99.90
17994;DHT22;9122;48.406;9.984;2024-03-06T05:07:16;7.00;99.90
17994;DHT22;9122;48.406;9.984;2024-03-06T05:10:01;7.10;99.90
17994;DHT22;9122;48.406;9.984;2024-03-06T05:12:45;7.20;99.90
17994;DHT22;9122;48.406;9.984;2024-03-06T05:15:30;7.10;99.90
17994;DHT22;9122;48.406;9.984;2024-03-06T05:18:14;7.10;99.90
17994;DHT22;9122;48.406;9.984;2024-03-06T05:20:58;7.20;99.90
17994;DHT22;9122;48.406;9.984;2024-03-06T05:23:42;7.20;99.90
17994;DHT22;9122;48.406;9.984;2024-03-06T05:26:26;7.10;99.90
17994;DHT22;9122;48.406;9.984;2024-03-06T05:29:11;7.10;99.90
17994;DHT22;9122;48.406;9.984;2024-03-06T05:31:56;7.10;99.90
17994;DHT22;9122;48.406;9.984;2024-03-06T05:34:40;7.10;99.90
17994;DHT22;9122;48.406;9.984;2024-03-06T05:37:25;7.10;99.90
17994;DHT22;9122;48.406;9.984;2024-03-06T05:40:11;7.10;99.90
17994;DHT22;9122;48.406;9.984;2024-03-06T05:42:55;7.10;99.90
17994;DHT22;9122;48.406;9.984;2024-03-06T05:45:40;7.10;99.90
17994;DHT22;9122;48.406;9.984;2024-03-06T05:48:24;7.10;99.90
17994;DHT22;9122;48.406;9.984;2024-03-06T05:51:09;7.20;99.90
17994;DHT22;9122;48.406;9.984;2024-03-06T05:53:54;6.60;99.90
17994;DHT22;9122;48.406;9.984;2024-03-06T05:56:38;7.50;99.90
17994;DHT22;9122;48.406;9.984;2024-03-06T05:59:23;7.10;99.90
17994;DHT22;9122;48.406;9.984;2024-03-06T06:02:08;7.00;99.90
17994;DHT22;9122;48.406;9.984;2024-03-06T06:04:52;7.20;99.90
17994;DHT22;9122;48.406;9.984;2024-03-06T06:07:36;7.00;99.90
17994;DHT22;9122;48.406;9.984;2024-03-06T06:10:21;7.00;99.90
17994;DHT22;9122;48.406;9.984;2024-03-06T06:13:06;7.00;99.90
17994;DHT22;9122;48.406;9.984;2024-03-06T06:15:50;7.00;99.90
17994;DHT22;9122;48.406;9.984;2024-03-06T06:18:35;6.90;99.90
17994;DHT22;9122;48.406;9.984;2024-03-06T06:21:20;6.70;99.90
17994;DHT22;9122;48.406;9.984;2024-03-06T06:24:06;7.00;99.90
17994;DHT22;9122;48.406;9.984;2024-03-06T06:26:51;6.90;99.90
17994;DHT22;9122;48.406;9.984;2024-03-06T06:32:27;6.90;99.90
17994;DHT22;9122;48.406;9.984;2024-03-06T06:37:57;6.90;99.90
17994;DHT22;9122;48.406;9.984;2024-03-06T06:40:42;6.90;99.90
17994;DHT22;9122;48.406;9.984;2024-03-06T06:43:26;7.00;99.90
17994;DHT22;9122;48.406;9.984;2024-03-06T06:46:11;7.10;99.90
17994;DHT22;9122;48.406;9.984;2024-03-06T06:48:57;6.80;99.90
17994;DHT22;9122;48.406;9.984;2024-03-06T06:51:41;6.90;99.90
17994;DHT22;9122;48.406;9.984;2024-03-06T06:54:26;7.00;99.90
17994;DHT22;9122;48.406;9.984;2024-03-06T06:57:10;6.90;99.90
17994;DHT22;9122;48.406;9.984;2024-03-06T06:59:57;7.00;99.90
17994;DHT22;9122;48.406;9.984;2024-03-06T07:02:42;7.00;99.90
17994;DHT22;9122;48.406;9.984;2024-03-06T07:05:27;6.90;99.90
17994;DHT22;9122;48.406;9.984;2024-03-06T07:08:17;6.90;99.90
17994;DHT22;9122;48.406;9.984;2024-03-06T07:11:06;7.00;99.90
17994;DHT22;9122;48.406;9.984;2024-03-06T07:13:51;6.90;99.90
17994;DHT22;9122;48.406;9.984;2024-03-06T07:16:42;6.90;99.90
17994;DHT22;9122;48.406;9.984;2024-03-06T07:22:11;6.90;99.90
17994;DHT22;9122;48.406;9.984;2024-03-06T07:24:56;6.50;99.90
17994;DHT22;9122;48.406;9.984;2024-03-06T07:27:40;6.80;99.90
17994;DHT22;9122;48.406;9.984;2024-03-06T07:30:24;6.80;99.90
17994;DHT22;9122;48.406;9.984;2024-03-06T07:33:08;6.80;99.90
17994;DHT22;9122;48.406;9.984;2024-03-06T07:35:53;6.50;99.90
17994;DHT22;9122;48.406;9.984;2024-03-06T07:38:37;7.00;99.90
17994;DHT22;9122;48.406;9.984;2024-03-06T07:41:22;6.80;99.90
17994;DHT22;9122;48.406;9.984;2024-03-06T07:44:06;6.80;99.90
17994;DHT22;9122;48.406;9.984;2024-03-06T07:46:51;6.80;99.90
17994;DHT22;9122;48.406;9.984;2024-03-06T07:49:38;6.80;99.90
17994;DHT22;9122;48.406;9.984;2024-03-06T07:52:23;7.80;99.90
17994;DHT22;9122;48.406;9.984;2024-03-06T07:55:08;6.80;99.90
17994;DHT22;9122;48.406;9.984;2024-03-06T07:57:52;6.80;99.90
17994;DHT22;9122;48.406;9.984;2024-03-06T08:00:36;6.90;99.90
17994;DHT22;9122;48.406;9.984;2024-03-06T08:03:21;6.80;99.90
17994;DHT22;9122;48.406;9.984;2024-03-06T08:06:06;6.80;99.90
17994;DHT22;9122;48.406;9.984;2024-03-06T08:08:50;8.20;99.90
17994;DHT22;9122;48.406;9.984;2024-03-06T08:11:36;6.70;99.90
17994;DHT22;9122;48.406;9.984;2024-03-06T08:14:20;6.70;99.90
17994;DHT22;9122;48.406;9.984;2024-03-06T08:17:06;6.70;99.90
17994;DHT22;9122;48.406;9.984;2024-03-06T08:19:50;6.70;99.90
17994;DHT22;9122;48.406;9.984;2024-03-06T08:22:39;8.10;99.90
17994;DHT22;9122;48.406;9.984;2024-03-06T08:25:24;6.70;99.90
17994;DHT22;9122;48.406;9.984;2024-03-06T08:28:08;6.70;99.90
17994;DHT22;9122;48.406;9.984;2024-03-06T08:30:54;6.80;99.90
17994;DHT22;9122;48.406;9.984;2024-03-06T08:33:38;6.70;99.90
17994;DHT22;9122;48.406;9.984;2024-03-06T08:36:23;7.80;99.90
17994;DHT22;9122;48.406;9.984;2024-03-06T08:39:08;6.70;99.90
17994;DHT22;9122;48.406;9.984;2024-03-06T08:41:56;6.70;99.90
17994;DHT22;9122;48.406;9.984;2024-03-06T08:44:42;6.90;99.90
17994;DHT22;9122;48.406;9.984;2024-03-06T08:47:26;6.20;99.90
17994;DHT22;9122;48.406;9.984;2024-03-06T08:50:12;6.80;99.90
17994;DHT22;9122;48.406;9.984;2024-03-06T08:52:56;6.90;99.90
17994;DHT22;9122;48.406;9.984;2024-03-06T08:55:41;8.70;99.90
17994;DHT22;9122;48.406;9.984;2024-03-06T08:58:25;6.80;99.90
17994;DHT22;9122;48.406;9.984;2024-03-06T09:01:09;7.10;99.90
17994;DHT22;9122;48.406;9.984;2024-03-06T09:06:38;6.70;99.90
17994;DHT22;9122;48.406;9.984;2024-03-06T09:09:22;6.70;99.90
17994;DHT22;9122;48.406;9.984;2024-03-06T09:12:08;6.70;99.90
17994;DHT22;9122;48.406;9.984;2024-03-06T09:14:56;6.70;99.90
17994;DHT22;9122;48.406;9.984;2024-03-06T09:17:40;6.30;99.90
17994;DHT22;9122;48.406;9.984;2024-03-06T09:20:25;6.70;99.90
17994;DHT22;9122;48.406;9.984;2024-03-06T09:23:14;6.70;99.90
17994;DHT22;9122;48.406;9.984;2024-03-06T09:25:59;6.80;99.90
17994;DHT22;9122;48.406;9.984;2024-03-06T09:28:43;6.80;99.90
17994;DHT22;9122;48.406;9.984;2024-03-06T09:31:28;6.80;99.90
17994;DHT22;9122;48.406;9.984;2024-03-06T09:34:13;6.80;99.90
17994;DHT22;9122;48.406;9.984;2024-03-06T09:36:57;6.70;99.90
17994;DHT22;9122;48.406;9.984;2024-03-06T09:39:42;6.80;99.90
17994;DHT22;9122;48.406;9.984;2024-03-06T09:42:26;6.80;99.90
17994;DHT22;9122;48.406;9.984;2024-03-06T09:45:11;6.40;99.90
17994;DHT22;9122;48.406;9.984;2024-03-06T09:47:55;6.40;99.90
17994;DHT22;9122;48.406;9.984;2024-03-06T09:50:43;6.90;99.90
17994;DHT22;9122;48.406;9.984;2024-03-06T09:53:30;6.80;99.90
17994;DHT22;9122;48.406;9.984;2024-03-06T09:56:14;6.90;99.90
17994;DHT22;9122;48.406;9.984;2024-03-06T09:58:59;6.90;99.90
17994;DHT22;9122;48.406;9.984;2024-03-06T10:01:58;7.10;99.90
17994;DHT22;9122;48.406;9.984;2024-03-06T10:04:43;6.70;99.90
17994;DHT22;9122;48.406;9.984;2024-03-06T10:07:27;7.10;99.90
17994;DHT22;9122;48.406;9.984;2024-03-06T10:10:11;6.90;99.90
17994;DHT22;9122;48.406;9.984;2024-03-06T10:12:55;7.10;99.90
17994;DHT22;9122;48.406;9.984;2024-03-06T10:15:41;7.10;99.90
17994;DHT22;9122;48.406;9.984;2024-03-06T10:18:29;6.60;99.90
17994;DHT22;9122;48.406;9.984;2024-03-06T10:21:14;7.10;99.90
17994;DHT22;9122;48.406;9.984;2024-03-06T10:23:58;7.10;99.90
17994;DHT22;9122;48.406;9.984;2024-03-06T10:26:43;7.20;99.90
17994;DHT22;9122;48.406;9.984;2024-03-06T10:29:28;7.50;99.90
17994;DHT22;9122;48.406;9.984;2024-03-06T10:32:17;7.70;99.90
17994;DHT22;9122;48.406;9.984;2024-03-06T10:35:03;7.10;99.90
17994;DHT22;9122;48.406;9.984;2024-03-06T10:37:51;7.10;99.90
17994;DHT22;9122;48.406;9.984;2024-03-06T10:40:39;6.70;99.90
17994;DHT22;9122;48.406;9.984;2024-03-06T10:43:23;7.20;99.90
17994;DHT22;9122;48.406;9.984;2024-03-06T10:46:11;7.20;99.90
17994;DHT22;9122;48.406;9.984;2024-03-06T10:48:56;7.30;99.90
17994;DHT22;9122;48.406;9.984;2024-03-06T10:51:44;7.20;99.90
17994;DHT22;9122;48.406;9.984;2024-03-06T10:54:31;7.30;99.90
17994;DHT22;9122;48.406;9.984;2024-03-06T10:57:17;7.30;99.90
17994;DHT22;9122;48.406;9.984;2024-03-06T11:00:02;7.60;99.90
17994;DHT22;9122;48.406;9.984;2024-03-06T11:02:47;7.40;99.90
17994;DHT22;9122;48.406;9.984;2024-03-06T11:05:35;7.30;99.90
17994;DHT22;9122;48.406;9.984;2024-03-06T11:08:21;7.20;99.90
17994;DHT22;9122;48.406;9.984;2024-03-06T11:11:20;7.70;99.90
17994;DHT22;9122;48.406;9.984;2024-03-06T11:14:08;7.10;99.90
17994;DHT22;9122;48.406;9.984;2024-03-06T11:17:07;7.10;99.90
17994;DHT22;9122;48.406;9.984;2024-03-06T11:28:48;7.50;99.90
17994;DHT22;9122;48.406;9.984;2024-03-06T11:31:35;7.00;99.90
17994;DHT22;9122;48.406;9.984;2024-03-06T11:34:22;7.50;99.90
17994;DHT22;9122;48.406;9.984;2024-03-06T11:37:08;7.60;99.90
17994;DHT22;9122;48.406;9.984;2024-03-06T11:40:00;7.70;99.90
17994;DHT22;9122;48.406;9.984;2024-03-06T11:42:45;7.60;99.90
17994;DHT22;9122;48.406;9.984;2024-03-06T11:45:44;7.70;99.90
17994;DHT22;9122;48.406;9.984;2024-03-06T11:48:28;7.60;99.90
17994;DHT22;9122;48.406;9.984;2024-03-06T11:51:13;7.70;99.90
17994;DHT22;9122;48.406;9.984;2024-03-06T11:53:57;7.70;99.90
17994;DHT22;9122;48.406;9.984;2024-03-06T11:56:44;7.10;99.90
17994;DHT22;9122;48.406;9.984;2024-03-06T11:59:34;7.80;99.90
17994;DHT22;9122;48.406;9.984;2024-03-06T12:05:05;7.80;99.90
17994;DHT22;9122;48.406;9.984;2024-03-06T12:10:38;7.90;99.90
17994;DHT22;9122;48.406;9.984;2024-03-06T12:13:24;7.40;99.90
17994;DHT22;9122;48.406;9.984;2024-03-06T12:16:09;7.90;99.90
17994;DHT22;9122;48.406;9.984;2024-03-06T12:18:54;7.90;99.90
17994;DHT22;9122;48.406;9.984;2024-03-06T12:21:41;7.90;99.90
17994;DHT22;9122;48.406;9.984;2024-03-06T12:24:26;8.00;99.90
17994;DHT22;9122;48.406;9.984;2024-03-06T12:27:11;8.00;99.90
17994;DHT22;9122;48.406;9.984;2024-03-06T12:29:57;8.00;99.90
17994;DHT22;9122;48.406;9.984;2024-03-06T12:32:41;8.00;99.90
17994;DHT22;9122;48.406;9.984;2024-03-06T12:35:26;8.20;99.90
17994;DHT22;9122;48.406;9.984;2024-03-06T12:38:15;8.00;99.90
17994;DHT22;9122;48.406;9.984;2024-03-06T12:40:59;8.10;99.90
17994;DHT22;9122;48.406;9.984;2024-03-06T12:43:44;9.00;99.90
17994;DHT22;9122;48.406;9.984;2024-03-06T12:46:29;8.10;99.90
17994;DHT22;9122;48.406;9.984;2024-03-06T12:49:14;8.20;99.90
17994;DHT22;9122;48.406;9.984;2024-03-06T12:54:43;8.10;99.90
17994;DHT22;9122;48.406;9.984;2024-03-06T12:57:27;8.30;99.90
17994;DHT22;9122;48.406;9.984;2024-03-06T13:00:12;7.60;99.90
17994;DHT22;9122;48.406;9.984;2024-03-06T13:03:00;8.10;99.90
17994;DHT22;9122;48.406;9.984;2024-03-06T13:05:44;8.10;99.90
17994;DHT22;9122;48.406;9.984;2024-03-06T13:08:31;8.10;99.90
17994;DHT22;9122;48.406;9.984;2024-03-06T13:11:16;9.50;99.90
17994;DHT22;9122;48.406;9.984;2024-03-06T13:14:00;8.10;99.90
17994;DHT22;9122;48.406;9.984;2024-03-06T13:16:45;8.20;99.90
17994;DHT22;9122;48.406;9.984;2024-03-06T13:19:29;8.10;99.90
17994;DHT22;9122;48.406;9.984;2024-03-06T13:22:14;8.10;99.90
17994;DHT22;9122;48.406;9.984;2024-03-06T13:24:58;8.10;99.90
17994;DHT22;9122;48.406;9.984;2024-03-06T13:27:42;8.00;99.90
17994;DHT22;9122;48.406;9.984;2024-03-06T13:30:27;8.00;99.90
17994;DHT22;9122;48.406;9.984;2024-03-06T13:33:12;8.00;99.90
17994;DHT22;9122;48.406;9.984;2024-03-06T13:38:41;8.00;99.90
17994;DHT22;9122;48.406;9.984;2024-03-06T13:41:26;8.00;99.90
17994;DHT22;9122;48.406;9.984;2024-03-06T13:46:55;8.10;99.90
17994;DHT22;9122;48.406;9.984;2024-03-06T13:49:41;8.00;99.90
17994;DHT22;9122;48.406;9.984;2024-03-06T13:55:10;8.10;99.90
17994;DHT22;9122;48.406;9.984;2024-03-06T13:57:54;8.90;99.90
17994;DHT22;9122;48.406;9.984;2024-03-06T14:00:38;8.10;99.90
17994;DHT22;9122;48.406;9.984;2024-03-06T14:03:23;8.10;99.90
17994;DHT22;9122;48.406;9.984;2024-03-06T14:06:08;8.10;99.90
17994;DHT22;9122;48.406;9.984;2024-03-06T14:08:53;8.00;99.90
17994;DHT22;9122;48.406;9.984;2024-03-06T14:11:39;8.60;99.90
17994;DHT22;9122;48.406;9.984;2024-03-06T14:14:24;8.90;99.90
17994;DHT22;9122;48.406;9.984;2024-03-06T14:17:10;8.10;99.90
17994;DHT22;9122;48.406;9.984;2024-03-06T14:22:38;8.10;99.90
17994;DHT22;9122;48.406;9.984;2024-03-06T14:25:22;8.70;99.90
17994;DHT22;9122;48.406;9.984;2024-03-06T14:28:08;8.10;99.90
17994;DHT22;9122;48.406;9.984;2024-03-06T14:30:54;7.80;99.90
17994;DHT22;9122;48.406;9.984;2024-03-06T14:33:40;8.20;99.90
17994;DHT22;9122;48.406;9.984;2024-03-06T14:39:09;8.10;99.90
17994;DHT22;9122;48.406;9.984;2024-03-06T14:41:54;8.10;99.90
17994;DHT22;9122;48.406;9.984;2024-03-06T14:44:40;8.20;99.90
17994;DHT22;9122;48.406;9.984;2024-03-06T14:47:25;8.20;99.90
17994;DHT22;9122;48.406;9.984;2024-03-06T14:50:10;8.20;99.90
17994;DHT22;9122;48.406;9.984;2024-03-06T14:52:55;8.20;99.90
17994;DHT22;9122;48.406;9.984;2024-03-06T14:55:39;8.20;99.90
17994;DHT22;9122;48.406;9.984;2024-03-06T14:58:23;8.20;99.90
17994;DHT22;9122;48.406;9.984;2024-03-06T15:01:07;8.20;99.90
17994;DHT22;9122;48.406;9.984;2024-03-06T15:03:53;9.10;99.90
17994;DHT22;9122;48.406;9.984;2024-03-06T15:06:38;8.20;99.90
17994;DHT22;9122;48.406;9.984;2024-03-06T15:09:22;8.20;99.90
17994;DHT22;9122;48.406;9.984;2024-03-06T15:12:10;8.20;99.90
17994;DHT22;9122;48.406;9.984;2024-03-06T15:14:54;8.20;99.90
17994;DHT22;9122;48.406;9.984;2024-03-06T15:17:41;8.30;99.90
17994;DHT22;9122;48.406;9.984;2024-03-06T15:20:25;8.30;99.90
17994;DHT22;9122;48.406;9.984;2024-03-06T15:23:11;8.20;99.90
17994;DHT22;9122;48.406;9.984;2024-03-06T15:25:56;8.20;99.90
17994;DHT22;9122;48.406;9.984;2024-03-06T15:28:40;8.30;99.90
17994;DHT22;9122;48.406;9.984;2024-03-06T15:31:24;8.20;99.90
17994;DHT22;9122;48.406;9.984;2024-03-06T15:34:09;8.20;99.90
17994;DHT22;9122;48.406;9.984;2024-03-06T15:36:54;8.20;99.90
17994;DHT22;9122;48.406;9.984;2024-03-06T15:39:39;8.00;99.90
17994;DHT22;9122;48.406;9.984;2024-03-06T15:42:24;8.20;99.90
17994;DHT22;9122;48.406;9.984;2024-03-06T15:45:10;8.20;99.90
17994;DHT22;9122;48.406;9.984;2024-03-06T15:47:59;8.40;99.90
17994;DHT22;9122;48.406;9.984;2024-03-06T15:50:44;8.30;99.90
17994;DHT22;9122;48.406;9.984;2024-03-06T15:53:28;8.20;99.90
17994;DHT22;9122;48.406;9.984;2024-03-06T15:56:13;8.30;99.90
17994;DHT22;9122;48.406;9.984;2024-03-06T15:58:58;8.20;99.90
17994;DHT22;9122;48.406;9.984;2024-03-06T16:01:43;9.30;99.90
17994;DHT22;9122;48.406;9.984;2024-03-06T16:04:28;8.20;99.90
17994;DHT22;9122;48.406;9.984;2024-03-06T16:07:12;8.30;99.90
17994;DHT22;9122;48.406;9.984;2024-03-06T16:12:43;8.30;99.90
17994;DHT22;9122;48.406;9.984;2024-03-06T16:15:27;8.30;99.90
17994;DHT22;9122;48.406;9.984;2024-03-06T16:18:12;7.70;99.90
17994;DHT22;9122;48.406;9.984;2024-03-06T16:20:56;8.30;99.90
17994;DHT22;9122;48.406;9.984;2024-03-06T16:23:40;8.30;99.90
17994;DHT22;9122;48.406;9.984;2024-03-06T16:26:28;8.90;99.90
17994;DHT22;9122;48.406;9.984;2024-03-06T16:29:13;8.20;99.90
17994;DHT22;9122;48.406;9.984;2024-03-06T16:31:57;8.40;99.90
17994;DHT22;9122;48.406;9.984;2024-03-06T16:34:43;8.20;99.90
17994;DHT22;9122;48.406;9.984;2024-03-06T16:37:28;8.30;99.90
17994;DHT22;9122;48.406;9.984;2024-03-06T16:40:12;8.30;99.90
17994;DHT22;9122;48.406;9.984;2024-03-06T16:42:56;8.20;99.90
17994;DHT22;9122;48.406;9.984;2024-03-06T16:45:41;10.00;99.90
17994;DHT22;9122;48.406;9.984;2024-03-06T16:48:25;8.20;99.90
17994;DHT22;9122;48.406;9.984;2024-03-06T16:51:17;7.90;99.90
17994;DHT22;9122;48.406;9.984;2024-03-06T16:54:01;8.00;99.90
17994;DHT22;9122;48.406;9.984;2024-03-06T16:56:48;8.20;99.90
17994;DHT22;9122;48.406;9.984;2024-03-06T17:02:17;8.20;99.90
17994;DHT22;9122;48.406;9.984;2024-03-06T17:05:02;8.40;99.90
17994;DHT22;9122;48.406;9.984;2024-03-06T17:10:32;8.20;99.90
17994;DHT22;9122;48.406;9.984;2024-03-06T17:13:17;8.20;99.90
17994;DHT22;9122;48.406;9.984;2024-03-06T17:16:11;8.20;99.90
17994;DHT22;9122;48.406;9.984;2024-03-06T17:18:55;10.30;99.90
17994;DHT22;9122;48.406;9.984;2024-03-06T17:21:39;8.20;99.90
17994;DHT22;9122;48.406;9.984;2024-03-06T17:24:24;9.50;99.90
17994;DHT22;9122;48.406;9.984;2024-03-06T17:27:08;8.20;99.90
17994;DHT22;9122;48.406;9.984;2024-03-06T17:29:53;8.20;99.90
17994;DHT22;9122;48.406;9.984;2024-03-06T17:32:37;8.20;99.90
17994;DHT22;9122;48.406;9.984;2024-03-06T17:35:22;8.20;99.90
17994;DHT22;9122;48.406;9.984;2024-03-06T17:38:07;8.20;99.90
17994;DHT22;9122;48.406;9.984;2024-03-06T17:40:51;9.10;99.90
17994;DHT22;9122;48.406;9.984;2024-03-06T17:43:35;8.20;99.90
17994;DHT22;9122;48.406;9.984;2024-03-06T17:46:19;7.60;99.90
17994;DHT22;9122;48.406;9.984;2024-03-06T17:49:04;8.30;99.90
17994;DHT22;9122;48.406;9.984;2024-03-06T17:51:48;8.10;99.90
17994;DHT22;9122;48.406;9.984;2024-03-06T17:54:34;7.80;99.90
17994;DHT22;9122;48.406;9.984;2024-03-06T17:57:20;8.00;99.90
17994;DHT22;9122;48.406;9.984;2024-03-06T18:00:05;7.90;99.90
17994;DHT22;9122;48.406;9.984;2024-03-06T18:02:53;7.90;99.90
17994;DHT22;9122;48.406;9.984;2024-03-06T18:05:39;7.90;99.90
17994;DHT22;9122;48.406;9.984;2024-03-06T18:16:38;7.70;99.90
17994;DHT22;9122;48.406;9.984;2024-03-06T18:19:22;7.60;99.90
17994;DHT22;9122;48.406;9.984;2024-03-06T18:22:06;7.70;99.90
17994;DHT22;9122;48.406;9.984;2024-03-06T18:27:36;7.70;99.90
17994;DHT22;9122;48.406;9.984;2024-03-06T18:30:20;7.60;99.90
17994;DHT22;9122;48.406;9.984;2024-03-06T18:33:04;7.70;99.90
17994;DHT22;9122;48.406;9.984;2024-03-06T18:35:49;7.80;99.90
17994;DHT22;9122;48.406;9.984;2024-03-06T18:38:33;7.80;99.90
17994;DHT22;9122;48.406;9.984;2024-03-06T18:41:17;7.80;99.90
17994;DHT22;9122;48.406;9.984;2024-03-06T18:44:02;7.70;99.90
17994;DHT22;9122;48.406;9.984;2024-03-06T18:46:47;7.70;99.90
17994;DHT22;9122;48.406;9.984;2024-03-06T18:49:31;7.60;99.90
17994;DHT22;9122;48.406;9.984;2024-03-06T18:52:15;7.70;99.90
17994;DHT22;9122;48.406;9.984;2024-03-06T18:55:00;8.80;99.90
17994;DHT22;9122;48.406;9.984;2024-03-06T18:57:44;7.60;99.90
17994;DHT22;9122;48.406;9.984;2024-03-06T19:00:28;7.70;99.90
17994;DHT22;9122;48.406;9.984;2024-03-06T19:03:12;7.60;99.90
17994;DHT22;9122;48.406;9.984;2024-03-06T19:05:57;7.60;99.90
17994;DHT22;9122;48.406;9.984;2024-03-06T19:11:27;7.60;99.90
17994;DHT22;9122;48.406;9.984;2024-03-06T19:14:12;8.40;99.90
17994;DHT22;9122;48.406;9.984;2024-03-06T19:19:41;7.60;99.90
17994;DHT22;9122;48.406;9.984;2024-03-06T19:22:25;7.60;99.90
17994;DHT22;9122;48.406;9.984;2024-03-06T19:25:09;7.60;99.90
17994;DHT22;9122;48.406;9.984;2024-03-06T19:27:54;7.60;99.90
17994;DHT22;9122;48.406;9.984;2024-03-06T19:30:39;7.50;99.90
17994;DHT22;9122;48.406;9.984;2024-03-06T19:33:24;7.60;99.90